sensor_id;sensor_type;location;lat;lon;timestamp;P1;durP1;ratioP1;P2;durP2;ratioP2
64959;SDS011;51487;52.266;10.542;2023-10-09T00:01:04;3.47;;;1.92;;
64959;SDS011;51487;52.266;10.542;2023-10-09T00:03:38;4.30;;;1.55;;
64959;SDS011;51487;52.266;10.542;2023-10-09T00:06:07;4.05;;;1.73;;
64959;SDS011;51487;52.266;10.542;2023-10-09T00:08:33;4.13;;;1.80;;
64959;SDS011;51487;52.266;10.542;2023-10-09T00:11:02;6.13;;;1.95;;
64959;SDS011;51487;52.266;10.542;2023-10-09T00:13:43;3.45;;;1.52;;
64959;SDS011;51487;52.266;10.542;2023-10-09T00:16:14;3.63;;;1.75;;
64959;SDS011;51487;52.266;10.542;2023-10-09T00:18:42;3.42;;;1.70;;
64959;SDS011;51487;52.266;10.542;2023-10-09T00:21:17;3.30;;;1.63;;
64959;SDS011;51487;52.266;10.542;2023-10-09T00:23:48;2.60;;;1.42;;
64959;SDS011;51487;52.266;10.542;2023-10-09T00:26:20;2.40;;;1.50;;
64959;SDS011;51487;52.266;10.542;2023-10-09T00:28:47;3.47;;;1.70;;
64959;SDS011;51487;52.266;10.542;2023-10-09T00:31:16;5.03;;;1.55;;
64959;SDS011;51487;52.266;10.542;2023-10-09T00:33:59;3.13;;;2.05;;
64959;SDS011;51487;52.266;10.542;2023-10-09T00:36:26;3.05;;;1.58;;
64959;SDS011;51487;52.266;10.542;2023-10-09T00:38:53;4.97;;;1.73;;
64959;SDS011;51487;52.266;10.542;2023-10-09T00:41:19;3.78;;;1.50;;
64959;SDS011;51487;52.266;10.542;2023-10-09T00:43:46;6.28;;;1.63;;
64959;SDS011;51487;52.266;10.542;2023-10-09T00:46:14;2.03;;;1.40;;
64959;SDS011;51487;52.266;10.542;2023-10-09T00:48:43;2.67;;;1.35;;
64959;SDS011;51487;52.266;10.542;2023-10-09T00:51:12;4.38;;;1.50;;
64959;SDS011;51487;52.266;10.542;2023-10-09T00:53:43;3.25;;;1.60;;
64959;SDS011;51487;52.266;10.542;2023-10-09T00:56:21;2.53;;;1.60;;
64959;SDS011;51487;52.266;10.542;2023-10-09T00:58:51;2.88;;;1.75;;
64959;SDS011;51487;52.266;10.542;2023-10-09T01:01:25;3.00;;;1.50;;
64959;SDS011;51487;52.266;10.542;2023-10-09T01:04:00;1.92;;;1.45;;
64959;SDS011;51487;52.266;10.542;2023-10-09T01:06:43;2.78;;;1.42;;
64959;SDS011;51487;52.266;10.542;2023-10-09T01:09:29;2.90;;;1.50;;
64959;SDS011;51487;52.266;10.542;2023-10-09T01:12:01;7.60;;;1.70;;
64959;SDS011;51487;52.266;10.542;2023-10-09T01:14:27;4.95;;;1.70;;
64959;SDS011;51487;52.266;10.542;2023-10-09T01:16:52;4.28;;;1.70;;
64959;SDS011;51487;52.266;10.542;2023-10-09T01:19:19;2.58;;;1.60;;
64959;SDS011;51487;52.266;10.542;2023-10-09T01:21:56;2.40;;;1.48;;
64959;SDS011;51487;52.266;10.542;2023-10-09T01:24:41;4.63;;;1.67;;
64959;SDS011;51487;52.266;10.542;2023-10-09T01:27:08;4.13;;;1.65;;
64959;SDS011;51487;52.266;10.542;2023-10-09T01:29:40;1.95;;;1.58;;
64959;SDS011;51487;52.266;10.542;2023-10-09T01:32:10;3.90;;;1.70;;
64959;SDS011;51487;52.266;10.542;2023-10-09T01:34:43;4.88;;;1.40;;
64959;SDS011;51487;52.266;10.542;2023-10-09T01:37:15;2.45;;;1.70;;
64959;SDS011;51487;52.266;10.542;2023-10-09T01:39:54;2.75;;;1.48;;
64959;SDS011;51487;52.266;10.542;2023-10-09T01:42:44;2.33;;;1.67;;
64959;SDS011;51487;52.266;10.542;2023-10-09T01:45:11;7.15;;;1.90;;
64959;SDS011;51487;52.266;10.542;2023-10-09T01:47:38;3.00;;;1.42;;
64959;SDS011;51487;52.266;10.542;2023-10-09T01:50:05;2.67;;;1.70;;
64959;SDS011;51487;52.266;10.542;2023-10-09T01:52:38;4.80;;;1.95;;
64959;SDS011;51487;52.266;10.542;2023-10-09T01:55:04;2.88;;;1.58;;
64959;SDS011;51487;52.266;10.542;2023-10-09T01:57:32;3.85;;;1.58;;
64959;SDS011;51487;52.266;10.542;2023-10-09T01:59:59;3.25;;;1.52;;
64959;SDS011;51487;52.266;10.542;2023-10-09T02:02:24;2.13;;;1.50;;
64959;SDS011;51487;52.266;10.542;2023-10-09T02:04:51;1.98;;;1.70;;
64959;SDS011;51487;52.266;10.542;2023-10-09T02:07:18;2.65;;;1.67;;
64959;SDS011;51487;52.266;10.542;2023-10-09T02:09:54;3.67;;;1.88;;
64959;SDS011;51487;52.266;10.542;2023-10-09T02:12:21;3.20;;;1.70;;
64959;SDS011;51487;52.266;10.542;2023-10-09T02:14:48;3.05;;;1.60;;
64959;SDS011;51487;52.266;10.542;2023-10-09T02:17:18;2.80;;;1.58;;
64959;SDS011;51487;52.266;10.542;2023-10-09T02:19:45;3.58;;;1.55;;
64959;SDS011;51487;52.266;10.542;2023-10-09T02:22:14;3.13;;;1.70;;
64959;SDS011;51487;52.266;10.542;2023-10-09T02:24:41;5.43;;;1.58;;
64959;SDS011;51487;52.266;10.542;2023-10-09T02:27:16;3.95;;;1.65;;
64959;SDS011;51487;52.266;10.542;2023-10-09T02:29:51;3.60;;;1.50;;
64959;SDS011;51487;52.266;10.542;2023-10-09T02:32:18;4.80;;;1.98;;
64959;SDS011;51487;52.266;10.542;2023-10-09T02:34:51;3.03;;;1.80;;
64959;SDS011;51487;52.266;10.542;2023-10-09T02:37:18;3.88;;;1.80;;
64959;SDS011;51487;52.266;10.542;2023-10-09T02:39:50;3.20;;;1.60;;
64959;SDS011;51487;52.266;10.542;2023-10-09T02:42:17;2.60;;;1.60;;
64959;SDS011;51487;52.266;10.542;2023-10-09T02:44:52;4.13;;;1.60;;
64959;SDS011;51487;52.266;10.542;2023-10-09T02:47:18;2.58;;;1.55;;
64959;SDS011;51487;52.266;10.542;2023-10-09T02:50:03;3.75;;;1.55;;
64959;SDS011;51487;52.266;10.542;2023-10-09T02:52:44;4.38;;;1.42;;
64959;SDS011;51487;52.266;10.542;2023-10-09T02:55:12;3.28;;;1.60;;
64959;SDS011;51487;52.266;10.542;2023-10-09T02:57:48;2.63;;;1.65;;
64959;SDS011;51487;52.266;10.542;2023-10-09T03:00:17;2.05;;;1.60;;
64959;SDS011;51487;52.266;10.542;2023-10-09T03:02:54;3.22;;;1.80;;
64959;SDS011;51487;52.266;10.542;2023-10-09T03:05:23;5.10;;;1.77;;
64959;SDS011;51487;52.266;10.542;2023-10-09T03:07:53;3.88;;;1.70;;
64959;SDS011;51487;52.266;10.542;2023-10-09T03:10:21;4.63;;;1.75;;
64959;SDS011;51487;52.266;10.542;2023-10-09T03:12:47;2.97;;;1.67;;
64959;SDS011;51487;52.266;10.542;2023-10-09T03:15:18;3.65;;;1.55;;
64959;SDS011;51487;52.266;10.542;2023-10-09T03:17:45;3.08;;;1.70;;
64959;SDS011;51487;52.266;10.542;2023-10-09T03:20:13;7.72;;;1.70;;
64959;SDS011;51487;52.266;10.542;2023-10-09T03:22:40;3.45;;;1.80;;
64959;SDS011;51487;52.266;10.542;2023-10-09T03:25:06;3.53;;;1.70;;
64959;SDS011;51487;52.266;10.542;2023-10-09T03:27:36;4.28;;;1.50;;
64959;SDS011;51487;52.266;10.542;2023-10-09T03:30:12;5.45;;;2.00;;
64959;SDS011;51487;52.266;10.542;2023-10-09T03:32:49;5.75;;;2.00;;
64959;SDS011;51487;52.266;10.542;2023-10-09T03:35:16;4.63;;;1.60;;
64959;SDS011;51487;52.266;10.542;2023-10-09T03:37:50;3.40;;;1.83;;
64959;SDS011;51487;52.266;10.542;2023-10-09T03:40:18;5.15;;;2.03;;
64959;SDS011;51487;52.266;10.542;2023-10-09T03:42:44;3.70;;;1.70;;
64959;SDS011;51487;52.266;10.542;2023-10-09T03:45:10;4.93;;;1.98;;
64959;SDS011;51487;52.266;10.542;2023-10-09T03:47:37;3.05;;;1.63;;
64959;SDS011;51487;52.266;10.542;2023-10-09T03:50:07;5.78;;;2.00;;
64959;SDS011;51487;52.266;10.542;2023-10-09T03:52:49;6.75;;;1.88;;
64959;SDS011;51487;52.266;10.542;2023-10-09T03:55:15;4.03;;;1.77;;
64959;SDS011;51487;52.266;10.542;2023-10-09T03:57:40;4.60;;;2.30;;
64959;SDS011;51487;52.266;10.542;2023-10-09T04:00:10;3.97;;;2.00;;
64959;SDS011;51487;52.266;10.542;2023-10-09T04:02:52;6.90;;;2.17;;
64959;SDS011;51487;52.266;10.542;2023-10-09T04:05:17;5.63;;;2.10;;
64959;SDS011;51487;52.266;10.542;2023-10-09T04:07:43;3.05;;;1.92;;
64959;SDS011;51487;52.266;10.542;2023-10-09T04:10:08;4.63;;;2.10;;
64959;SDS011;51487;52.266;10.542;2023-10-09T04:12:54;5.72;;;2.15;;
64959;SDS011;51487;52.266;10.542;2023-10-09T04:15:23;3.90;;;1.90;;
64959;SDS011;51487;52.266;10.542;2023-10-09T04:17:49;4.40;;;2.30;;
64959;SDS011;51487;52.266;10.542;2023-10-09T04:20:16;7.05;;;2.25;;
64959;SDS011;51487;52.266;10.542;2023-10-09T04:22:42;11.00;;;2.92;;
64959;SDS011;51487;52.266;10.542;2023-10-09T04:25:21;3.90;;;1.90;;
64959;SDS011;51487;52.266;10.542;2023-10-09T04:28:06;4.53;;;2.08;;
64959;SDS011;51487;52.266;10.542;2023-10-09T04:30:37;4.90;;;2.10;;
64959;SDS011;51487;52.266;10.542;2023-10-09T04:33:08;4.07;;;2.33;;
64959;SDS011;51487;52.266;10.542;2023-10-09T04:36:06;3.88;;;2.10;;
64959;SDS011;51487;52.266;10.542;2023-10-09T04:38:41;5.32;;;2.47;;
64959;SDS011;51487;52.266;10.542;2023-10-09T04:41:39;5.68;;;2.35;;
64959;SDS011;51487;52.266;10.542;2023-10-09T04:44:08;4.63;;;2.35;;
64959;SDS011;51487;52.266;10.542;2023-10-09T04:46:44;4.93;;;2.40;;
64959;SDS011;51487;52.266;10.542;2023-10-09T04:49:31;4.15;;;2.33;;
64959;SDS011;51487;52.266;10.542;2023-10-09T04:52:17;4.25;;;2.30;;
64959;SDS011;51487;52.266;10.542;2023-10-09T04:55:11;3.90;;;2.17;;
64959;SDS011;51487;52.266;10.542;2023-10-09T04:57:37;4.50;;;2.35;;
64959;SDS011;51487;52.266;10.542;2023-10-09T05:00:08;6.57;;;2.50;;
64959;SDS011;51487;52.266;10.542;2023-10-09T05:03:01;4.32;;;2.47;;
64959;SDS011;51487;52.266;10.542;2023-10-09T05:05:37;4.97;;;2.70;;
64959;SDS011;51487;52.266;10.542;2023-10-09T05:08:10;6.57;;;3.08;;
64959;SDS011;51487;52.266;10.542;2023-10-09T05:10:54;5.55;;;2.63;;
64959;SDS011;51487;52.266;10.542;2023-10-09T05:13:36;6.95;;;2.88;;
64959;SDS011;51487;52.266;10.542;2023-10-09T05:18:52;10.48;;;4.18;;
64959;SDS011;51487;52.266;10.542;2023-10-09T05:21:22;12.63;;;3.42;;
64959;SDS011;51487;52.266;10.542;2023-10-09T05:23:58;8.52;;;3.75;;
64959;SDS011;51487;52.266;10.542;2023-10-09T05:26:37;7.32;;;3.45;;
64959;SDS011;51487;52.266;10.542;2023-10-09T05:29:17;8.80;;;3.90;;
64959;SDS011;51487;52.266;10.542;2023-10-09T05:31:58;10.25;;;3.80;;
64959;SDS011;51487;52.266;10.542;2023-10-09T05:34:53;10.43;;;4.25;;
64959;SDS011;51487;52.266;10.542;2023-10-09T05:37:24;10.65;;;5.07;;
64959;SDS011;51487;52.266;10.542;2023-10-09T05:40:03;7.80;;;4.85;;
64959;SDS011;51487;52.266;10.542;2023-10-09T05:42:34;11.07;;;5.63;;
64959;SDS011;51487;52.266;10.542;2023-10-09T05:45:09;12.10;;;6.13;;
64959;SDS011;51487;52.266;10.542;2023-10-09T05:47:59;16.50;;;7.10;;
64959;SDS011;51487;52.266;10.542;2023-10-09T05:50:37;13.75;;;6.78;;
64959;SDS011;51487;52.266;10.542;2023-10-09T05:53:03;15.38;;;7.72;;
64959;SDS011;51487;52.266;10.542;2023-10-09T05:55:31;14.80;;;8.85;;
64959;SDS011;51487;52.266;10.542;2023-10-09T05:58:16;15.02;;;9.52;;
64959;SDS011;51487;52.266;10.542;2023-10-09T06:01:00;16.98;;;9.98;;
64959;SDS011;51487;52.266;10.542;2023-10-09T06:03:44;19.67;;;10.95;;
64959;SDS011;51487;52.266;10.542;2023-10-09T06:06:37;19.83;;;10.57;;
64959;SDS011;51487;52.266;10.542;2023-10-09T06:09:20;16.20;;;11.10;;
64959;SDS011;51487;52.266;10.542;2023-10-09T06:11:46;21.90;;;11.65;;
64959;SDS011;51487;52.266;10.542;2023-10-09T06:14:18;21.90;;;12.45;;
64959;SDS011;51487;52.266;10.542;2023-10-09T06:17:10;19.85;;;12.27;;
64959;SDS011;51487;52.266;10.542;2023-10-09T06:19:38;23.33;;;13.93;;
64959;SDS011;51487;52.266;10.542;2023-10-09T06:22:10;22.13;;;13.35;;
64959;SDS011;51487;52.266;10.542;2023-10-09T06:24:54;23.08;;;14.57;;
64959;SDS011;51487;52.266;10.542;2023-10-09T06:27:22;26.88;;;15.43;;
64959;SDS011;51487;52.266;10.542;2023-10-09T06:30:11;26.98;;;16.80;;
64959;SDS011;51487;52.266;10.542;2023-10-09T06:32:37;33.10;;;18.17;;
64959;SDS011;51487;52.266;10.542;2023-10-09T06:35:03;30.15;;;18.70;;
64959;SDS011;51487;52.266;10.542;2023-10-09T06:37:48;29.73;;;17.65;;
64959;SDS011;51487;52.266;10.542;2023-10-09T06:40:47;29.98;;;19.23;;
64959;SDS011;51487;52.266;10.542;2023-10-09T06:43:18;35.22;;;18.75;;
64959;SDS011;51487;52.266;10.542;2023-10-09T06:45:48;34.88;;;19.92;;
64959;SDS011;51487;52.266;10.542;2023-10-09T06:48:22;37.40;;;20.35;;
64959;SDS011;51487;52.266;10.542;2023-10-09T06:51:06;34.05;;;20.02;;
64959;SDS011;51487;52.266;10.542;2023-10-09T06:54:01;31.38;;;20.65;;
64959;SDS011;51487;52.266;10.542;2023-10-09T06:56:34;39.08;;;21.02;;
64959;SDS011;51487;52.266;10.542;2023-10-09T06:59:01;38.03;;;21.85;;
64959;SDS011;51487;52.266;10.542;2023-10-09T07:01:30;37.17;;;20.38;;
64959;SDS011;51487;52.266;10.542;2023-10-09T07:04:02;34.30;;;20.95;;
64959;SDS011;51487;52.266;10.542;2023-10-09T07:06:57;35.92;;;19.73;;
64959;SDS011;51487;52.266;10.542;2023-10-09T07:09:24;37.53;;;20.05;;
64959;SDS011;51487;52.266;10.542;2023-10-09T07:12:15;33.45;;;19.23;;
64959;SDS011;51487;52.266;10.542;2023-10-09T07:15:04;33.28;;;17.45;;
64959;SDS011;51487;52.266;10.542;2023-10-09T07:17:30;31.15;;;17.38;;
64959;SDS011;51487;52.266;10.542;2023-10-09T07:19:59;25.90;;;16.58;;
64959;SDS011;51487;52.266;10.542;2023-10-09T07:22:37;28.60;;;16.35;;
64959;SDS011;51487;52.266;10.542;2023-10-09T07:25:17;27.58;;;15.55;;
64959;SDS011;51487;52.266;10.542;2023-10-09T07:28:05;26.52;;;15.00;;
64959;SDS011;51487;52.266;10.542;2023-10-09T07:30:43;24.73;;;15.63;;
64959;SDS011;51487;52.266;10.542;2023-10-09T07:33:11;31.52;;;16.25;;
64959;SDS011;51487;52.266;10.542;2023-10-09T07:35:38;28.35;;;17.00;;
64959;SDS011;51487;52.266;10.542;2023-10-09T07:40:44;29.92;;;15.80;;
64959;SDS011;51487;52.266;10.542;2023-10-09T07:43:41;29.83;;;16.33;;
64959;SDS011;51487;52.266;10.542;2023-10-09T07:46:12;32.33;;;17.77;;
64959;SDS011;51487;52.266;10.542;2023-10-09T07:49:17;28.33;;;16.95;;
64959;SDS011;51487;52.266;10.542;2023-10-09T07:51:50;27.98;;;17.30;;
64959;SDS011;51487;52.266;10.542;2023-10-09T07:54:18;29.85;;;16.38;;
64959;SDS011;51487;52.266;10.542;2023-10-09T07:56:57;29.40;;;17.33;;
64959;SDS011;51487;52.266;10.542;2023-10-09T07:59:41;29.35;;;17.77;;
64959;SDS011;51487;52.266;10.542;2023-10-09T08:02:19;30.75;;;17.75;;
64959;SDS011;51487;52.266;10.542;2023-10-09T08:05:00;28.40;;;17.17;;
64959;SDS011;51487;52.266;10.542;2023-10-09T08:07:31;31.42;;;17.70;;
64959;SDS011;51487;52.266;10.542;2023-10-09T08:10:04;36.58;;;17.83;;
64959;SDS011;51487;52.266;10.542;2023-10-09T08:12:39;28.58;;;17.35;;
64959;SDS011;51487;52.266;10.542;2023-10-09T08:15:14;29.92;;;15.85;;
64959;SDS011;51487;52.266;10.542;2023-10-09T08:17:48;26.42;;;16.23;;
64959;SDS011;51487;52.266;10.542;2023-10-09T08:20:24;30.05;;;16.40;;
64959;SDS011;51487;52.266;10.542;2023-10-09T08:22:52;26.67;;;16.10;;
64959;SDS011;51487;52.266;10.542;2023-10-09T08:25:21;28.48;;;16.92;;
64959;SDS011;51487;52.266;10.542;2023-10-09T08:28:10;28.83;;;15.88;;
64959;SDS011;51487;52.266;10.542;2023-10-09T08:31:07;27.25;;;15.15;;
64959;SDS011;51487;52.266;10.542;2023-10-09T08:33:55;28.92;;;16.13;;
64959;SDS011;51487;52.266;10.542;2023-10-09T08:36:27;29.85;;;16.77;;
64959;SDS011;51487;52.266;10.542;2023-10-09T08:38:57;31.05;;;17.23;;
64959;SDS011;51487;52.266;10.542;2023-10-09T08:41:39;24.90;;;15.27;;
64959;SDS011;51487;52.266;10.542;2023-10-09T08:44:06;28.95;;;15.60;;
64959;SDS011;51487;52.266;10.542;2023-10-09T08:46:32;26.75;;;14.70;;
64959;SDS011;51487;52.266;10.542;2023-10-09T08:48:59;25.20;;;14.90;;
64959;SDS011;51487;52.266;10.542;2023-10-09T08:51:25;23.00;;;14.25;;
64959;SDS011;51487;52.266;10.542;2023-10-09T08:53:52;23.98;;;14.70;;
64959;SDS011;51487;52.266;10.542;2023-10-09T08:56:19;24.27;;;14.65;;
64959;SDS011;51487;52.266;10.542;2023-10-09T08:58:49;25.80;;;14.93;;
64959;SDS011;51487;52.266;10.542;2023-10-09T09:01:21;24.88;;;14.02;;
64959;SDS011;51487;52.266;10.542;2023-10-09T09:03:48;26.92;;;14.57;;
64959;SDS011;51487;52.266;10.542;2023-10-09T09:06:15;23.63;;;14.63;;
64959;SDS011;51487;52.266;10.542;2023-10-09T09:08:44;23.55;;;13.63;;
64959;SDS011;51487;52.266;10.542;2023-10-09T09:11:11;29.50;;;15.57;;
64959;SDS011;51487;52.266;10.542;2023-10-09T09:13:48;22.75;;;14.25;;
64959;SDS011;51487;52.266;10.542;2023-10-09T09:16:44;25.08;;;14.13;;
64959;SDS011;51487;52.266;10.542;2023-10-09T09:19:13;27.02;;;15.52;;
64959;SDS011;51487;52.266;10.542;2023-10-09T09:24:24;28.52;;;15.15;;
64959;SDS011;51487;52.266;10.542;2023-10-09T09:26:50;28.98;;;16.05;;
64959;SDS011;51487;52.266;10.542;2023-10-09T09:29:24;27.58;;;15.75;;
64959;SDS011;51487;52.266;10.542;2023-10-09T09:32:01;25.10;;;15.57;;
64959;SDS011;51487;52.266;10.542;2023-10-09T09:34:47;24.63;;;15.38;;
64959;SDS011;51487;52.266;10.542;2023-10-09T09:37:26;26.50;;;15.15;;
64959;SDS011;51487;52.266;10.542;2023-10-09T09:40:00;28.52;;;15.15;;
64959;SDS011;51487;52.266;10.542;2023-10-09T09:42:43;25.17;;;15.93;;
64959;SDS011;51487;52.266;10.542;2023-10-09T09:45:13;31.27;;;16.42;;
64959;SDS011;51487;52.266;10.542;2023-10-09T09:47:40;27.80;;;16.15;;
64959;SDS011;51487;52.266;10.542;2023-10-09T09:50:16;32.03;;;16.75;;
64959;SDS011;51487;52.266;10.542;2023-10-09T09:52:49;27.90;;;16.98;;
64959;SDS011;51487;52.266;10.542;2023-10-09T09:55:21;28.38;;;17.02;;
64959;SDS011;51487;52.266;10.542;2023-10-09T09:57:56;28.20;;;17.80;;
64959;SDS011;51487;52.266;10.542;2023-10-09T10:00:25;29.10;;;17.15;;
64959;SDS011;51487;52.266;10.542;2023-10-09T10:03:29;31.63;;;17.00;;
64959;SDS011;51487;52.266;10.542;2023-10-09T10:06:02;26.67;;;16.77;;
64959;SDS011;51487;52.266;10.542;2023-10-09T10:11:04;26.40;;;15.52;;
64959;SDS011;51487;52.266;10.542;2023-10-09T10:16:08;30.02;;;16.95;;
64959;SDS011;51487;52.266;10.542;2023-10-09T10:19:06;30.35;;;17.08;;
64959;SDS011;51487;52.266;10.542;2023-10-09T10:21:43;27.95;;;17.10;;
64959;SDS011;51487;52.266;10.542;2023-10-09T10:27:16;28.35;;;17.23;;
64959;SDS011;51487;52.266;10.542;2023-10-09T10:32:56;28.10;;;17.55;;
64959;SDS011;51487;52.266;10.542;2023-10-09T10:35:42;26.90;;;17.58;;
64959;SDS011;51487;52.266;10.542;2023-10-09T10:43:56;27.77;;;16.20;;
64959;SDS011;51487;52.266;10.542;2023-10-09T10:46:24;23.75;;;16.00;;
64959;SDS011;51487;52.266;10.542;2023-10-09T10:49:06;26.20;;;17.85;;
64959;SDS011;51487;52.266;10.542;2023-10-09T10:51:45;28.27;;;17.08;;
64959;SDS011;51487;52.266;10.542;2023-10-09T10:54:35;25.33;;;16.42;;
64959;SDS011;51487;52.266;10.542;2023-10-09T10:57:01;23.63;;;16.50;;
64959;SDS011;51487;52.266;10.542;2023-10-09T10:59:30;23.60;;;15.98;;
64959;SDS011;51487;52.266;10.542;2023-10-09T11:02:01;24.27;;;15.40;;
64959;SDS011;51487;52.266;10.542;2023-10-09T11:04:35;25.63;;;17.20;;
64959;SDS011;51487;52.266;10.542;2023-10-09T11:07:06;23.50;;;17.08;;
64959;SDS011;51487;52.266;10.542;2023-10-09T11:12:29;23.08;;;16.80;;
64959;SDS011;51487;52.266;10.542;2023-10-09T11:15:31;26.58;;;17.25;;
64959;SDS011;51487;52.266;10.542;2023-10-09T11:18:15;23.85;;;17.48;;
64959;SDS011;51487;52.266;10.542;2023-10-09T11:20:54;25.65;;;18.30;;
64959;SDS011;51487;52.266;10.542;2023-10-09T11:23:29;24.05;;;17.13;;
64959;SDS011;51487;52.266;10.542;2023-10-09T11:25:58;27.30;;;18.58;;
64959;SDS011;51487;52.266;10.542;2023-10-09T11:28:44;23.42;;;17.25;;
64959;SDS011;51487;52.266;10.542;2023-10-09T11:31:22;21.88;;;16.50;;
64959;SDS011;51487;52.266;10.542;2023-10-09T11:33:49;24.52;;;17.10;;
64959;SDS011;51487;52.266;10.542;2023-10-09T11:36:17;24.38;;;16.73;;
64959;SDS011;51487;52.266;10.542;2023-10-09T11:38:57;21.15;;;15.88;;
64959;SDS011;51487;52.266;10.542;2023-10-09T11:41:43;22.33;;;15.65;;
64959;SDS011;51487;52.266;10.542;2023-10-09T11:44:09;19.95;;;15.63;;
64959;SDS011;51487;52.266;10.542;2023-10-09T11:46:59;20.23;;;15.57;;
64959;SDS011;51487;52.266;10.542;2023-10-09T11:49:54;20.25;;;15.23;;
64959;SDS011;51487;52.266;10.542;2023-10-09T11:52:27;22.10;;;14.25;;
64959;SDS011;51487;52.266;10.542;2023-10-09T11:55:00;20.95;;;13.15;;
64959;SDS011;51487;52.266;10.542;2023-10-09T11:57:39;17.65;;;13.52;;
64959;SDS011;51487;52.266;10.542;2023-10-09T12:00:06;19.10;;;13.13;;
64959;SDS011;51487;52.266;10.542;2023-10-09T12:02:52;20.83;;;11.60;;
64959;SDS011;51487;52.266;10.542;2023-10-09T12:05:18;18.58;;;11.38;;
64959;SDS011;51487;52.266;10.542;2023-10-09T12:07:47;19.42;;;11.45;;
64959;SDS011;51487;52.266;10.542;2023-10-09T12:10:20;20.58;;;11.93;;
64959;SDS011;51487;52.266;10.542;2023-10-09T12:12:52;18.50;;;11.07;;
64959;SDS011;51487;52.266;10.542;2023-10-09T12:15:19;17.67;;;10.85;;
64959;SDS011;51487;52.266;10.542;2023-10-09T12:17:46;16.10;;;11.27;;
64959;SDS011;51487;52.266;10.542;2023-10-09T12:20:21;20.42;;;11.98;;
64959;SDS011;51487;52.266;10.542;2023-10-09T12:23:02;18.30;;;11.65;;
64959;SDS011;51487;52.266;10.542;2023-10-09T12:25:32;16.58;;;11.40;;
64959;SDS011;51487;52.266;10.542;2023-10-09T12:28:00;19.45;;;12.13;;
64959;SDS011;51487;52.266;10.542;2023-10-09T12:30:30;16.17;;;11.55;;
64959;SDS011;51487;52.266;10.542;2023-10-09T12:33:03;16.90;;;10.90;;
64959;SDS011;51487;52.266;10.542;2023-10-09T12:35:28;21.92;;;12.73;;
64959;SDS011;51487;52.266;10.542;2023-10-09T12:37:59;18.25;;;12.73;;
64959;SDS011;51487;52.266;10.542;2023-10-09T12:40:25;17.73;;;12.20;;
64959;SDS011;51487;52.266;10.542;2023-10-09T12:42:54;16.83;;;12.18;;
64959;SDS011;51487;52.266;10.542;2023-10-09T12:45:20;16.75;;;12.20;;
64959;SDS011;51487;52.266;10.542;2023-10-09T12:47:55;16.83;;;11.90;;
64959;SDS011;51487;52.266;10.542;2023-10-09T12:50:24;18.70;;;13.05;;
64959;SDS011;51487;52.266;10.542;2023-10-09T12:52:58;18.67;;;12.25;;
64959;SDS011;51487;52.266;10.542;2023-10-09T12:55:35;16.83;;;12.25;;
64959;SDS011;51487;52.266;10.542;2023-10-09T12:58:08;15.95;;;11.68;;
64959;SDS011;51487;52.266;10.542;2023-10-09T13:00:39;14.95;;;11.95;;
64959;SDS011;51487;52.266;10.542;2023-10-09T13:03:12;17.13;;;11.43;;
64959;SDS011;51487;52.266;10.542;2023-10-09T13:05:45;16.50;;;11.35;;
64959;SDS011;51487;52.266;10.542;2023-10-09T13:08:20;17.23;;;11.93;;
64959;SDS011;51487;52.266;10.542;2023-10-09T13:10:50;16.98;;;11.40;;
64959;SDS011;51487;52.266;10.542;2023-10-09T13:13:26;13.23;;;10.55;;
64959;SDS011;51487;52.266;10.542;2023-10-09T13:16:05;15.02;;;10.80;;
64959;SDS011;51487;52.266;10.542;2023-10-09T13:18:39;13.20;;;9.52;;
64959;SDS011;51487;52.266;10.542;2023-10-09T13:21:15;15.82;;;10.75;;
64959;SDS011;51487;52.266;10.542;2023-10-09T13:23:48;11.95;;;8.90;;
64959;SDS011;51487;52.266;10.542;2023-10-09T13:26:18;14.18;;;9.43;;
64959;SDS011;51487;52.266;10.542;2023-10-09T13:29:05;13.75;;;9.05;;
64959;SDS011;51487;52.266;10.542;2023-10-09T13:31:36;12.27;;;8.75;;
64959;SDS011;51487;52.266;10.542;2023-10-09T13:34:05;11.90;;;8.15;;
64959;SDS011;51487;52.266;10.542;2023-10-09T13:36:39;11.98;;;8.57;;
64959;SDS011;51487;52.266;10.542;2023-10-09T13:39:14;9.75;;;7.63;;
64959;SDS011;51487;52.266;10.542;2023-10-09T13:41:51;9.98;;;7.70;;
64959;SDS011;51487;52.266;10.542;2023-10-09T13:44:25;11.25;;;8.00;;
64959;SDS011;51487;52.266;10.542;2023-10-09T13:47:10;10.30;;;8.15;;
64959;SDS011;51487;52.266;10.542;2023-10-09T13:49:44;9.70;;;7.32;;
64959;SDS011;51487;52.266;10.542;2023-10-09T13:52:10;9.38;;;7.63;;
64959;SDS011;51487;52.266;10.542;2023-10-09T13:54:43;11.88;;;7.70;;
64959;SDS011;51487;52.266;10.542;2023-10-09T13:57:12;10.77;;;8.40;;
64959;SDS011;51487;52.266;10.542;2023-10-09T13:59:40;10.00;;;7.70;;
64959;SDS011;51487;52.266;10.542;2023-10-09T14:02:16;10.45;;;7.88;;
64959;SDS011;51487;52.266;10.542;2023-10-09T14:04:43;9.82;;;8.10;;
64959;SDS011;51487;52.266;10.542;2023-10-09T14:07:12;11.93;;;8.05;;
64959;SDS011;51487;52.266;10.542;2023-10-09T14:09:41;9.35;;;7.35;;
64959;SDS011;51487;52.266;10.542;2023-10-09T14:12:20;9.93;;;7.38;;
64959;SDS011;51487;52.266;10.542;2023-10-09T14:14:51;10.10;;;7.57;;
64959;SDS011;51487;52.266;10.542;2023-10-09T14:17:19;11.15;;;8.13;;
64959;SDS011;51487;52.266;10.542;2023-10-09T14:19:56;10.40;;;8.13;;
64959;SDS011;51487;52.266;10.542;2023-10-09T14:22:41;8.07;;;6.75;;
64959;SDS011;51487;52.266;10.542;2023-10-09T14:25:07;9.65;;;6.90;;
64959;SDS011;51487;52.266;10.542;2023-10-09T14:27:40;11.40;;;7.25;;
64959;SDS011;51487;52.266;10.542;2023-10-09T14:30:06;10.07;;;6.95;;
64959;SDS011;51487;52.266;10.542;2023-10-09T14:32:38;8.70;;;7.20;;
64959;SDS011;51487;52.266;10.542;2023-10-09T14:35:13;9.27;;;6.60;;
64959;SDS011;51487;52.266;10.542;2023-10-09T14:37:41;9.70;;;6.80;;
64959;SDS011;51487;52.266;10.542;2023-10-09T14:40:07;7.60;;;6.32;;
64959;SDS011;51487;52.266;10.542;2023-10-09T14:42:38;9.13;;;7.07;;
64959;SDS011;51487;52.266;10.542;2023-10-09T14:45:09;8.95;;;6.18;;
64959;SDS011;51487;52.266;10.542;2023-10-09T14:47:44;6.63;;;5.53;;
64959;SDS011;51487;52.266;10.542;2023-10-09T14:50:12;5.38;;;3.90;;
64959;SDS011;51487;52.266;10.542;2023-10-09T14:52:38;5.72;;;4.85;;
64959;SDS011;51487;52.266;10.542;2023-10-09T14:55:06;9.95;;;4.82;;
64959;SDS011;51487;52.266;10.542;2023-10-09T14:57:32;6.43;;;4.95;;
64959;SDS011;51487;52.266;10.542;2023-10-09T14:59:59;5.40;;;4.57;;
64959;SDS011;51487;52.266;10.542;2023-10-09T15:02:38;6.05;;;4.07;;
64959;SDS011;51487;52.266;10.542;2023-10-09T15:05:04;6.25;;;4.30;;
64959;SDS011;51487;52.266;10.542;2023-10-09T15:07:35;8.40;;;5.30;;
64959;SDS011;51487;52.266;10.542;2023-10-09T15:10:04;8.40;;;4.40;;
64959;SDS011;51487;52.266;10.542;2023-10-09T15:12:30;7.68;;;4.97;;
64959;SDS011;51487;52.266;10.542;2023-10-09T15:14:56;5.93;;;5.03;;
64959;SDS011;51487;52.266;10.542;2023-10-09T15:17:22;7.15;;;6.03;;
64959;SDS011;51487;52.266;10.542;2023-10-09T15:19:49;6.47;;;5.47;;
64959;SDS011;51487;52.266;10.542;2023-10-09T15:22:20;8.68;;;5.78;;
64959;SDS011;51487;52.266;10.542;2023-10-09T15:24:46;7.43;;;4.78;;
64959;SDS011;51487;52.266;10.542;2023-10-09T15:27:11;8.98;;;5.40;;